createdAt,value
2023-02-20T00:02:07.982Z,1.77
2023-02-20T00:04:34.721Z,1.75
2023-02-20T00:07:01.474Z,1.76
2023-02-20T00:09:28.186Z,1.75
2023-02-20T00:11:56.311Z,1.84
2023-02-20T00:14:23.132Z,1.93
2023-02-20T00:16:49.880Z,1.91
2023-02-20T00:19:16.966Z,1.86
2023-02-20T00:21:54.962Z,1.81
2023-02-20T00:24:21.779Z,1.94
2023-02-20T00:26:49.289Z,1.94
2023-02-20T00:29:18.672Z,1.99
2023-02-20T00:31:51.356Z,2.03
2023-02-20T00:34:18.268Z,2.01
2023-02-20T00:36:45.122Z,2.01
2023-02-20T00:39:11.989Z,2.04
2023-02-20T00:41:38.814Z,2.00
2023-02-20T00:44:05.964Z,1.91
2023-02-20T00:46:34.273Z,1.82
2023-02-20T00:49:01.174Z,1.64
2023-02-20T00:51:28.165Z,1.57
2023-02-20T00:53:54.945Z,1.43
2023-02-20T00:56:21.754Z,1.40
2023-02-20T00:58:48.522Z,1.39
2023-02-20T01:01:15.394Z,1.36
2023-02-20T01:03:43.736Z,1.28
2023-02-20T01:06:11.341Z,1.31
2023-02-20T01:08:38.342Z,1.51
2023-02-20T01:11:05.360Z,1.58
2023-02-20T01:13:32.307Z,1.51
2023-02-20T01:15:59.276Z,1.45
2023-02-20T01:18:26.254Z,1.42
2023-02-20T01:20:54.371Z,1.47
2023-02-20T01:23:21.176Z,1.60
2023-02-20T01:25:47.928Z,1.70
2023-02-20T01:28:14.668Z,1.66
2023-02-20T01:30:42.367Z,1.56
2023-02-20T01:33:09.164Z,1.58
2023-02-20T01:35:36.302Z,1.67
2023-02-20T01:38:04.824Z,1.69
2023-02-20T01:40:31.764Z,1.72
2023-02-20T01:42:58.559Z,1.84
2023-02-20T01:45:34.196Z,1.87
2023-02-20T01:48:01.000Z,1.79
2023-02-20T01:50:31.280Z,1.80
2023-02-20T01:53:02.661Z,1.72
2023-02-20T01:55:34.801Z,1.66
2023-02-20T01:58:08.895Z,1.51
2023-02-20T02:00:35.733Z,1.51
2023-02-20T02:03:06.728Z,1.42
2023-02-20T02:05:35.041Z,1.40
2023-02-20T02:08:04.632Z,1.39
2023-02-20T02:10:39.836Z,1.38
2023-02-20T02:13:07.014Z,1.41
2023-02-20T02:15:33.879Z,1.39
2023-02-20T02:18:16.820Z,1.45
2023-02-20T02:21:25.310Z,1.52
2023-02-20T02:24:37.784Z,1.42
2023-02-20T02:27:37.393Z,1.34
2023-02-20T02:30:46.244Z,1.22
2023-02-20T02:33:45.885Z,1.42
2023-02-20T02:36:31.167Z,1.54
2023-02-20T02:39:03.342Z,1.56
2023-02-20T02:41:38.861Z,1.38
2023-02-20T02:44:12.861Z,1.22
2023-02-20T02:46:43.092Z,1.16
2023-02-20T02:49:17.810Z,1.04
2023-02-20T02:51:47.978Z,0.92
2023-02-20T02:54:17.350Z,0.90
2023-02-20T02:56:46.751Z,0.90
2023-02-20T02:59:17.914Z,0.91
2023-02-20T03:01:48.861Z,1.04
2023-02-20T03:04:17.328Z,1.24
2023-02-20T03:06:48.335Z,1.28
2023-02-20T03:09:20.552Z,1.12
2023-02-20T03:11:48.246Z,1.16
2023-02-20T03:14:19.795Z,1.21
2023-02-20T03:16:53.851Z,1.24
2023-02-20T03:19:26.063Z,1.28
2023-02-20T03:21:57.530Z,1.17
2023-02-20T03:24:27.625Z,1.27
2023-02-20T03:26:56.768Z,1.29
2023-02-20T03:29:33.231Z,1.31
2023-02-20T03:32:06.183Z,1.33
2023-02-20T03:34:33.337Z,1.51
2023-02-20T03:37:05.138Z,1.52
2023-02-20T03:39:34.891Z,1.46
2023-02-20T03:42:04.318Z,1.31
2023-02-20T03:44:32.330Z,1.24
2023-02-20T03:47:01.890Z,1.15
2023-02-20T03:49:32.506Z,1.16
2023-02-20T03:52:00.981Z,1.07
2023-02-20T03:54:29.590Z,1.03
2023-02-20T03:56:59.560Z,1.06
2023-02-20T03:59:32.152Z,1.07
2023-02-20T04:02:03.906Z,1.03
2023-02-20T04:04:35.862Z,1.01
2023-02-20T04:07:09.830Z,0.99
2023-02-20T04:09:44.126Z,0.93
2023-02-20T04:12:15.293Z,0.98
2023-02-20T04:14:44.594Z,0.97
2023-02-20T04:17:16.397Z,1.01
2023-02-20T04:19:43.331Z,1.04
2023-02-20T04:22:15.563Z,0.95
2023-02-20T04:24:47.819Z,0.89
2023-02-20T04:27:14.929Z,0.85
2023-02-20T04:29:42.096Z,0.80
2023-02-20T04:32:09.008Z,0.73
2023-02-20T04:34:35.912Z,0.77
2023-02-20T04:37:07.884Z,0.77
2023-02-20T04:39:36.341Z,0.75
2023-02-20T04:42:03.235Z,0.76
2023-02-20T04:44:29.993Z,0.72
2023-02-20T04:46:57.205Z,0.59
2023-02-20T04:49:23.965Z,0.54
2023-02-20T04:51:50.837Z,0.57
2023-02-20T04:54:17.621Z,0.62
2023-02-20T04:56:45.841Z,0.55
2023-02-20T04:59:12.854Z,0.54
2023-02-20T05:01:39.706Z,0.59
2023-02-20T05:04:06.460Z,0.61
2023-02-20T05:06:33.284Z,0.65
2023-02-20T05:09:00.040Z,0.64
2023-02-20T05:11:26.836Z,0.58
2023-02-20T05:13:55.076Z,0.53
2023-02-20T05:16:21.834Z,0.67
2023-02-20T05:18:50.788Z,0.88
2023-02-20T05:21:17.621Z,0.87
2023-02-20T05:23:46.259Z,0.89
2023-02-20T05:26:18.844Z,0.92
2023-02-20T05:28:45.704Z,0.83
2023-02-20T05:31:17.041Z,0.82
2023-02-20T05:33:44.305Z,0.77
2023-02-20T05:36:11.236Z,0.70
2023-02-20T05:38:38.330Z,0.64
2023-02-20T05:41:05.379Z,0.46
2023-02-20T05:43:32.125Z,0.43
2023-02-20T05:45:59.036Z,0.42
2023-02-20T05:48:27.253Z,0.39
2023-02-20T05:50:54.101Z,0.46
2023-02-20T05:53:20.821Z,0.45
2023-02-20T05:55:47.676Z,0.43
2023-02-20T05:58:14.519Z,0.46
2023-02-20T06:00:41.337Z,0.54
2023-02-20T06:03:08.665Z,0.60
2023-02-20T06:05:36.786Z,0.55
2023-02-20T06:08:04.439Z,0.41
2023-02-20T06:10:31.201Z,0.38
2023-02-20T06:12:57.963Z,0.36
2023-02-20T06:15:25.030Z,0.35
2023-02-20T06:17:51.823Z,0.35
2023-02-20T06:20:19.180Z,0.42
2023-02-20T06:22:48.491Z,0.39
2023-02-20T06:25:15.277Z,0.36
2023-02-20T06:27:42.058Z,0.37
2023-02-20T06:30:10.107Z,0.41
2023-02-20T06:32:36.884Z,0.38
2023-02-20T06:35:04.146Z,0.36
2023-02-20T06:37:30.876Z,0.42
2023-02-20T06:39:58.969Z,0.46
2023-02-20T06:42:25.805Z,0.45
2023-02-20T06:44:52.554Z,0.50
2023-02-20T06:47:19.335Z,0.52
2023-02-20T06:49:46.117Z,0.71
2023-02-20T06:52:12.948Z,0.97
2023-02-20T06:54:39.674Z,1.02
2023-02-20T06:57:08.337Z,0.97
2023-02-20T06:59:35.117Z,1.03
2023-02-20T07:02:01.973Z,1.01
2023-02-20T07:04:28.763Z,1.06
2023-02-20T07:06:55.549Z,1.05
2023-02-20T07:09:22.686Z,1.09
2023-02-20T07:11:49.678Z,1.11
2023-02-20T07:14:18.108Z,1.15
2023-02-20T07:16:45.527Z,1.21
2023-02-20T07:19:13.262Z,1.24
2023-02-20T07:21:40.510Z,1.25
2023-02-20T07:24:08.087Z,1.30
2023-02-20T07:26:34.952Z,1.33
2023-02-20T07:29:01.704Z,1.50
2023-02-20T07:31:29.991Z,1.71
2023-02-20T07:34:01.331Z,2.02
2023-02-20T07:36:28.270Z,2.33
2023-02-20T07:38:55.414Z,2.54
2023-02-20T07:41:22.749Z,2.69
2023-02-20T07:43:49.518Z,2.91
2023-02-20T07:46:19.075Z,3.18
2023-02-20T07:48:48.485Z,3.42
2023-02-20T07:51:15.830Z,3.67
2023-02-20T07:53:48.389Z,3.96
2023-02-20T07:56:15.255Z,4.17
2023-02-20T07:58:42.040Z,4.43
2023-02-20T08:01:08.882Z,4.64
2023-02-20T08:03:35.974Z,4.84
2023-02-20T08:06:04.996Z,5.06
2023-02-20T08:08:31.806Z,5.27
2023-02-20T08:11:08.413Z,5.41
2023-02-20T08:13:35.854Z,5.58
2023-02-20T08:16:02.726Z,5.71
2023-02-20T08:18:29.549Z,5.85
2023-02-20T08:20:56.546Z,5.93
2023-02-20T08:23:24.815Z,6.06
2023-02-20T08:25:51.849Z,6.15
2023-02-20T08:28:19.257Z,6.27
2023-02-20T08:30:46.790Z,6.38
2023-02-20T08:33:14.260Z,6.51
2023-02-20T08:35:41.790Z,6.58
2023-02-20T08:38:25.759Z,6.61
2023-02-20T08:40:53.768Z,6.73
2023-02-20T08:43:21.159Z,6.82
2023-02-20T08:45:48.722Z,6.89
2023-02-20T08:48:15.709Z,6.96
2023-02-20T08:50:42.770Z,7.06
2023-02-20T08:53:10.358Z,7.17
2023-02-20T08:55:38.915Z,7.30
2023-02-20T08:58:05.958Z,7.38
2023-02-20T09:00:34.456Z,7.38
2023-02-20T09:03:05.021Z,7.43
2023-02-20T09:05:31.969Z,7.55
2023-02-20T09:07:58.844Z,7.61
2023-02-20T09:10:25.972Z,7.70
2023-02-20T09:12:55.032Z,7.78
2023-02-20T09:15:22.216Z,7.82
2023-02-20T09:17:50.118Z,7.84
2023-02-20T09:20:18.199Z,7.91
2023-02-20T09:22:45.025Z,8.02
2023-02-20T09:25:13.143Z,8.11
2023-02-20T09:27:40.843Z,8.22
2023-02-20T09:30:16.815Z,8.34
2023-02-20T09:32:43.850Z,8.45
2023-02-20T09:35:16.757Z,8.58
2023-02-20T09:37:43.678Z,8.72
2023-02-20T09:40:11.369Z,8.74
2023-02-20T09:42:48.925Z,8.82
2023-02-20T09:45:21.321Z,8.95
2023-02-20T09:48:04.916Z,9.05
2023-02-20T09:50:36.432Z,9.19
2023-02-20T09:53:08.422Z,9.34
2023-02-20T09:55:40.687Z,9.46
2023-02-20T09:58:17.999Z,9.57
2023-02-20T10:00:47.243Z,9.70
2023-02-20T10:03:22.968Z,9.78
2023-02-20T10:05:50.170Z,9.90
2023-02-20T10:08:20.320Z,10.01
2023-02-20T10:10:50.322Z,10.10
2023-02-20T10:13:38.988Z,10.17
2023-02-20T10:16:19.323Z,10.29
2023-02-20T10:18:59.321Z,10.37
2023-02-20T10:21:37.817Z,10.31
2023-02-20T10:24:22.618Z,10.30
2023-02-20T10:26:55.172Z,10.48
2023-02-20T10:29:26.007Z,10.63
2023-02-20T10:32:01.360Z,10.74
2023-02-20T10:34:33.618Z,10.92
2023-02-20T10:37:06.362Z,10.94
2023-02-20T10:39:35.576Z,11.05
2023-02-20T10:42:13.040Z,11.22
2023-02-20T10:44:51.958Z,11.37
2023-02-20T10:47:30.593Z,11.51
2023-02-20T10:50:03.065Z,11.42
2023-02-20T10:52:35.147Z,11.34
2023-02-20T10:55:09.155Z,11.44
2023-02-20T10:57:44.140Z,11.22
2023-02-20T11:00:16.039Z,11.53
2023-02-20T11:02:54.244Z,11.74
2023-02-20T11:05:28.423Z,11.91
2023-02-20T11:08:00.978Z,12.05
2023-02-20T11:10:37.726Z,12.19
2023-02-20T11:13:12.208Z,12.30
2023-02-20T11:15:43.225Z,12.36
2023-02-20T11:18:25.540Z,12.25
2023-02-20T11:20:53.601Z,12.13
2023-02-20T11:23:36.651Z,12.39
2023-02-20T11:26:25.858Z,12.56
2023-02-20T11:29:06.894Z,12.59
2023-02-20T11:31:35.160Z,12.59
2023-02-20T11:34:13.222Z,12.45
2023-02-20T11:36:45.294Z,12.40
2023-02-20T11:39:24.054Z,12.40
2023-02-20T11:42:06.297Z,12.30
2023-02-20T11:44:36.808Z,12.37
2023-02-20T11:47:27.931Z,12.40
2023-02-20T11:50:20.651Z,12.38
2023-02-20T11:53:02.119Z,12.44
2023-02-20T11:55:32.364Z,12.51
2023-02-20T11:58:03.054Z,12.53
2023-02-20T12:00:45.048Z,12.48
2023-02-20T12:03:22.790Z,12.43
2023-02-20T12:05:56.038Z,12.37
2023-02-20T12:08:35.234Z,12.36
2023-02-20T12:11:08.554Z,12.35
2023-02-20T12:13:40.775Z,12.28
2023-02-20T12:16:27.301Z,12.12
2023-02-20T12:19:03.795Z,12.22
2023-02-20T12:21:49.502Z,12.23
2023-02-20T12:24:46.353Z,12.27
2023-02-20T12:27:42.874Z,12.23
2023-02-20T12:30:26.978Z,12.30
2023-02-20T12:33:16.548Z,12.34
2023-02-20T12:35:55.259Z,12.25
2023-02-20T12:38:49.163Z,12.06
2023-02-20T12:41:50.608Z,12.19
2023-02-20T12:44:55.966Z,12.22
2023-02-20T12:47:29.606Z,12.30
2023-02-20T12:50:15.143Z,12.31
2023-02-20T12:53:26.080Z,12.22
2023-02-20T12:56:14.107Z,12.20
2023-02-20T12:58:49.586Z,12.18
2023-02-20T13:01:38.381Z,12.13
2023-02-20T13:04:19.487Z,12.05
2023-02-20T13:06:52.598Z,11.97
2023-02-20T13:09:29.982Z,11.81
2023-02-20T13:12:06.140Z,11.59
2023-02-20T13:14:55.985Z,11.50
2023-02-20T13:17:33.549Z,11.43
2023-02-20T13:20:11.414Z,11.32
2023-02-20T13:22:47.916Z,11.12
2023-02-20T13:25:46.439Z,11.15
2023-02-20T13:28:35.568Z,11.18
2023-02-20T13:31:24.372Z,11.06
2023-02-20T13:34:44.383Z,11.00
2023-02-20T13:37:47.822Z,11.07
2023-02-20T13:40:37.581Z,11.08
2023-02-20T13:43:34.564Z,11.07
2023-02-20T13:46:19.476Z,11.12
2023-02-20T13:48:48.316Z,11.19
2023-02-20T13:51:38.382Z,11.17
2023-02-20T13:54:27.380Z,10.93
2023-02-20T13:57:00.881Z,11.02
2023-02-20T13:59:28.449Z,10.95
2023-02-20T14:02:00.953Z,11.03
2023-02-20T14:04:28.030Z,11.06
2023-02-20T14:06:58.843Z,11.07
2023-02-20T14:09:28.586Z,10.99
2023-02-20T14:12:03.018Z,10.87
2023-02-20T14:14:32.677Z,10.80
2023-02-20T14:17:06.704Z,10.73
2023-02-20T14:19:42.982Z,10.65
2023-02-20T14:22:29.683Z,10.53
2023-02-20T14:25:18.015Z,10.46
2023-02-20T14:27:45.124Z,10.49
2023-02-20T14:30:15.258Z,10.45
2023-02-20T14:32:46.292Z,10.30
2023-02-20T14:35:33.702Z,10.38
2023-02-20T14:38:10.929Z,10.25
2023-02-20T14:40:39.524Z,10.15
2023-02-20T14:43:14.912Z,10.08
2023-02-20T14:45:42.075Z,9.99
2023-02-20T14:48:23.188Z,9.90
2023-02-20T14:51:04.050Z,9.80
2023-02-20T14:53:30.915Z,9.65
2023-02-20T14:55:58.232Z,9.56
2023-02-20T14:58:24.978Z,9.45
2023-02-20T15:00:51.747Z,9.35
2023-02-20T15:03:30.318Z,9.30
2023-02-20T15:06:01.910Z,9.19
2023-02-20T15:08:31.545Z,9.07
2023-02-20T15:11:07.118Z,8.93
2023-02-20T15:13:38.475Z,8.79
2023-02-20T15:16:07.929Z,8.67
2023-02-20T15:18:38.973Z,8.50
2023-02-20T15:21:07.307Z,8.42
2023-02-20T15:23:35.486Z,8.35
2023-02-20T15:26:27.096Z,8.28
2023-02-20T15:29:19.888Z,8.10
2023-02-20T15:31:53.920Z,7.86
2023-02-20T15:34:23.709Z,7.83
2023-02-20T15:36:50.608Z,7.77
2023-02-20T15:39:41.826Z,7.68
2023-02-20T15:42:32.260Z,7.58
2023-02-20T15:44:59.338Z,7.59
2023-02-20T15:47:26.367Z,7.51
2023-02-20T15:49:59.949Z,7.26
2023-02-20T15:52:28.625Z,7.18
2023-02-20T15:54:56.348Z,7.08
2023-02-20T15:57:23.672Z,7.07
2023-02-20T15:59:50.987Z,7.05
2023-02-20T16:02:20.194Z,7.00
2023-02-20T16:04:48.170Z,6.99
2023-02-20T16:07:18.128Z,6.92
2023-02-20T16:09:46.036Z,6.84
2023-02-20T16:12:17.864Z,6.73
2023-02-20T16:14:46.620Z,6.81
2023-02-20T16:17:20.286Z,6.89
2023-02-20T16:19:48.478Z,6.96
2023-02-20T16:22:17.315Z,7.18
2023-02-20T16:24:45.178Z,6.99
2023-02-20T16:27:23.708Z,6.82
2023-02-20T16:29:52.382Z,6.70
2023-02-20T16:32:24.489Z,6.64
2023-02-20T16:34:52.221Z,6.61
2023-02-20T16:37:20.856Z,6.61
2023-02-20T16:39:48.037Z,6.27
2023-02-20T16:42:32.480Z,6.11
2023-02-20T16:45:01.746Z,5.91
2023-02-20T16:47:30.152Z,6.06
2023-02-20T16:49:57.612Z,5.96
2023-02-20T16:52:28.748Z,5.99
2023-02-20T16:54:56.488Z,6.06
2023-02-20T16:57:24.162Z,6.02
2023-02-20T16:59:53.783Z,5.91
2023-02-20T17:02:24.032Z,5.73
2023-02-20T17:04:51.134Z,5.67
2023-02-20T17:07:18.705Z,5.71
2023-02-20T17:09:47.012Z,5.71
2023-02-20T17:12:16.171Z,5.64
2023-02-20T17:14:43.061Z,5.58
2023-02-20T17:17:09.785Z,5.50
2023-02-20T17:19:37.661Z,5.39
2023-02-20T17:22:05.118Z,5.36
2023-02-20T17:24:31.904Z,5.19
2023-02-20T17:27:00.684Z,5.03
2023-02-20T17:29:28.168Z,4.95
2023-02-20T17:31:55.320Z,4.94
2023-02-20T17:34:22.222Z,5.27
2023-02-20T17:36:49.091Z,5.27
2023-02-20T17:39:16.880Z,5.16
2023-02-20T17:41:43.726Z,5.15
2023-02-20T17:44:15.274Z,5.08
2023-02-20T17:46:42.141Z,4.95
2023-02-20T17:49:09.178Z,4.78
2023-02-20T17:51:35.939Z,4.80
2023-02-20T17:54:02.921Z,4.79
2023-02-20T17:56:29.675Z,4.79
2023-02-20T17:58:56.508Z,4.75
2023-02-20T18:01:24.717Z,4.69
2023-02-20T18:03:51.512Z,4.57
2023-02-20T18:06:18.468Z,4.35
2023-02-20T18:08:47.547Z,4.19
2023-02-20T18:11:14.280Z,4.29
2023-02-20T18:13:41.297Z,4.50
2023-02-20T18:16:08.526Z,4.85
2023-02-20T18:18:36.680Z,4.86
2023-02-20T18:21:03.676Z,4.87
2023-02-20T18:23:30.492Z,4.76
2023-02-20T18:25:57.216Z,4.63
2023-02-20T18:28:23.930Z,4.78
2023-02-20T18:30:50.889Z,4.96
2023-02-20T18:33:18.710Z,4.87
2023-02-20T18:35:52.740Z,4.74
2023-02-20T18:38:29.001Z,4.69
2023-02-20T18:40:55.847Z,4.67
2023-02-20T18:43:22.742Z,4.75
2023-02-20T18:45:49.688Z,4.65
2023-02-20T18:48:16.968Z,4.71
2023-02-20T18:50:43.839Z,4.75
2023-02-20T18:53:12.037Z,4.76
2023-02-20T18:55:39.216Z,4.73
2023-02-20T18:58:05.996Z,4.70
2023-02-20T19:00:32.885Z,4.70
2023-02-20T19:03:01.087Z,4.65
2023-02-20T19:05:28.264Z,4.57
2023-02-20T19:07:55.112Z,4.66
2023-02-20T19:10:25.379Z,4.63
2023-02-20T19:12:53.082Z,4.54
2023-02-20T19:15:20.793Z,4.43
2023-02-20T19:17:47.754Z,4.28
2023-02-20T19:20:18.847Z,4.27
2023-02-20T19:22:45.937Z,4.30
2023-02-20T19:25:13.177Z,4.33
2023-02-20T19:27:41.450Z,4.35
2023-02-20T19:30:09.217Z,4.24
2023-02-20T19:32:36.280Z,4.12
2023-02-20T19:35:03.316Z,4.01
2023-02-20T19:37:30.424Z,3.98
2023-02-20T19:39:57.431Z,4.08
2023-02-20T19:42:26.696Z,4.17
2023-02-20T19:44:58.399Z,4.17
2023-02-20T19:47:25.608Z,4.11
2023-02-20T19:49:52.425Z,4.05
2023-02-20T19:52:19.192Z,4.11
2023-02-20T19:54:46.999Z,4.07
2023-02-20T19:57:14.401Z,4.43
2023-02-20T19:59:42.780Z,4.51
2023-02-20T20:02:12.098Z,4.23
2023-02-20T20:04:39.550Z,4.09
2023-02-20T20:07:06.442Z,3.95
2023-02-20T20:09:37.182Z,3.99
2023-02-20T20:12:05.387Z,3.98
2023-02-20T20:14:32.361Z,3.72
2023-02-20T20:16:59.131Z,3.78
2023-02-20T20:19:27.303Z,3.99
2023-02-20T20:21:54.025Z,4.14
2023-02-20T20:24:20.760Z,3.93
2023-02-20T20:26:47.538Z,3.76
2023-02-20T20:29:14.285Z,3.75
2023-02-20T20:31:41.957Z,3.56
2023-02-20T20:34:09.646Z,3.72
2023-02-20T20:36:37.874Z,3.72
2023-02-20T20:39:04.810Z,3.90
2023-02-20T20:41:43.860Z,3.79
2023-02-20T20:44:11.707Z,3.70
2023-02-20T20:46:38.578Z,3.81
2023-02-20T20:49:05.338Z,3.73
2023-02-20T20:51:32.061Z,3.91
2023-02-20T20:54:00.281Z,3.80
2023-02-20T20:56:27.089Z,3.66
2023-02-20T20:58:53.905Z,3.66
2023-02-20T21:01:20.655Z,3.66
2023-02-20T21:03:47.440Z,3.60
2023-02-20T21:06:14.332Z,3.57
2023-02-20T21:08:41.183Z,3.55
2023-02-20T21:11:09.624Z,3.53
2023-02-20T21:13:36.408Z,3.55
2023-02-20T21:16:03.178Z,3.63
2023-02-20T21:18:29.983Z,3.62
2023-02-20T21:20:56.847Z,3.56
2023-02-20T21:23:23.636Z,3.49
2023-02-20T21:25:50.415Z,3.60
2023-02-20T21:28:18.565Z,3.82
2023-02-20T21:30:45.320Z,3.89
2023-02-20T21:33:12.167Z,3.90
2023-02-20T21:35:39.125Z,3.81
2023-02-20T21:38:05.874Z,3.72
2023-02-20T21:40:32.766Z,3.64
2023-02-20T21:42:59.569Z,3.62
2023-02-20T21:45:27.787Z,3.66
2023-02-20T21:47:54.535Z,3.54
2023-02-20T21:50:21.519Z,3.44
2023-02-20T21:52:48.428Z,3.56
2023-02-20T21:55:17.320Z,3.62
2023-02-20T21:57:44.112Z,3.58
2023-02-20T22:00:13.296Z,3.63
2023-02-20T22:02:41.633Z,3.67
2023-02-20T22:05:10.460Z,3.52
2023-02-20T22:07:37.573Z,3.42
2023-02-20T22:10:04.621Z,3.30
2023-02-20T22:12:33.218Z,3.38
2023-02-20T22:15:01.215Z,3.38
2023-02-20T22:17:28.066Z,3.35
2023-02-20T22:19:56.510Z,3.29
2023-02-20T22:22:23.258Z,3.34
2023-02-20T22:24:50.025Z,3.36
2023-02-20T22:27:16.806Z,3.38
2023-02-20T22:29:43.603Z,3.47
2023-02-20T22:32:10.416Z,3.37
2023-02-20T22:34:37.278Z,3.15
2023-02-20T22:37:05.412Z,3.10
2023-02-20T22:39:32.143Z,3.11
2023-02-20T22:41:59.065Z,3.15
2023-02-20T22:44:25.967Z,3.13
2023-02-20T22:46:52.834Z,3.09
2023-02-20T22:49:19.646Z,3.06
2023-02-20T22:51:47.464Z,3.08
2023-02-20T22:54:16.104Z,3.38
2023-02-20T22:56:43.771Z,3.50
2023-02-20T22:59:10.616Z,3.33
2023-02-20T23:01:37.497Z,3.26
2023-02-20T23:04:04.714Z,3.26
2023-02-20T23:06:31.526Z,3.25
2023-02-20T23:08:58.308Z,3.14
2023-02-20T23:11:26.495Z,3.26
2023-02-20T23:13:53.235Z,3.04
2023-02-20T23:16:20.615Z,2.99
2023-02-20T23:18:47.388Z,2.90
2023-02-20T23:21:14.402Z,3.06
2023-02-20T23:23:41.393Z,3.20
2023-02-20T23:26:08.180Z,3.29
2023-02-20T23:28:37.385Z,3.32
2023-02-20T23:31:04.641Z,3.24
2023-02-20T23:33:31.484Z,3.32
2023-02-20T23:35:58.262Z,3.22
2023-02-20T23:38:24.996Z,3.21
2023-02-20T23:40:51.760Z,3.11
2023-02-20T23:43:18.492Z,3.07
2023-02-20T23:45:46.749Z,3.12
2023-02-20T23:48:14.317Z,3.08
2023-02-20T23:50:41.085Z,3.02
2023-02-20T23:53:07.881Z,2.90
2023-02-20T23:55:34.626Z,2.84
2023-02-20T23:58:01.401Z,3.21
